Weather at Bed-Ah-Wick Field

Public forecast

Using degrees Fahrenheit for public forecast. Weather courtesy of forecast.io.

Closest aviation weather report (METAR) to Bed-Ah-Wick Field

Closest report is Wautoma Municipal Airport, 14.1 nm (26.1 km) NW. Retrieved 2021/06/20 08:56 UTC (7 minutes ago):

KY50 200856Z AUTO 00000KT 10SM CLR 13/12 A2976 RMK AO2 SLP072 T01280122 58004

Closest aviation forecast (TAF) to Bed-Ah-Wick Field

Forecast is more than 12 hours old.

Closest forecast is Wittman Regional Airport, 25.5 nm (47.3 km) ENE. Retrieved 2021/05/03 12:42 UTC (2 months ago):

TAF KOSH 031141Z 0312/0412 VRB04KT 4SM TSRA BR OVC005CB TEMPO 0315/0318 2SM TSRA BR OVC001CB FM031800 04005KT 4SM SHRA BR OVC006 TEMPO 0318/0321 2SM TSRA BR OVC004CB FM040000 36007KT 4SM BR VCTS BKN005CB FM040300 35007KT 6SM BR VCSH BKN008 FM040600 33009KT P6SM OVC010